Pagrindinis puslapis
METAR-TAF:

METAR-TAF

Oro uostai :

Piešťany, Slovakija

platuma: 48-37-30N, ilguma: 017-49-43E, Aukštis: 163 m

Dabartinis oras

Ataskaita buvo paskelbta 16 minutes, ne 16:30 UTC
Vėjas 11 kt iš Šiaurės
Temperatūra 11°C
Drėgmė 62%
Slėgis 1010 hPa
Matomumas 10 km arba daugiau
nėra debesų žemiau 1500 m ir nėra kamuolinių lietaus debesų

METAR: LZPP 231630Z 36011KT CAVOK 11/04 Q1010

Laikas: 18:46 (16:46 UTC)

Prognozė

Ataskaita buvo paskelbta 2 valandos ir 31 minutes, ne 14:15 UTC
Prognozė galioja nuo 23 metu 15 UTC su 24 metu 00 UTC
Vėjas 12 kt iš Šiaurės
Matomumas 10 km arba daugiau
Mažai debesys ne aukštis 3200 ft
Tapsmas
nuo 23 metu 16 UTC su 23 metu 18 UTC
Vėjas 5 kt iš Šiaurės/Šiaurės Rytų

TAF: LZPP 231415Z 2315/2400 36012KT 9999 FEW032 BECMG 2316/2318 02005KT

Orai ataskaitas ir orų prognozės (METAR, TAF).

turimą stotys yra geltonos ir raudonos taškus žemėlapyje.

Perkelti pele per norėdami pamatyti stoties vardą.

Tada spustelėkite, norėdami matyti oro stebėjimo ir prognozės.

Norėdami pakeisti žemėlapį: spustelėkite ant žalios mygtukų su juodo kryžiaus žemyn,; žalią mygtuką su brūkšneliu, jei norite nutolinti; arba žalių rodyklių gretimoms žemėlapius.


METAR-TAF: